sensor_id;sensor_type;location;lat;lon;timestamp;pressure;altitude;pressure_sealevel;temperature;humidity
43071;BME280;36278;47.952;21.714;2023-02-19T00:00:58;100063.50;;;8.40;97.21
43071;BME280;36278;47.952;21.714;2023-02-19T00:03:25;100064.44;;;8.39;97.13
43071;BME280;36278;47.952;21.714;2023-02-19T00:05:51;100065.69;;;8.34;97.52
43071;BME280;36278;47.952;21.714;2023-02-19T00:08:16;100076.16;;;8.35;96.91
43071;BME280;36278;47.952;21.714;2023-02-19T00:10:42;100081.13;;;8.40;96.63
43071;BME280;36278;47.952;21.714;2023-02-19T00:13:07;100081.97;;;8.40;96.04
43071;BME280;36278;47.952;21.714;2023-02-19T00:15:33;100085.66;;;8.38;96.02
43071;BME280;36278;47.952;21.714;2023-02-19T00:17:59;100087.09;;;8.29;96.27
43071;BME280;36278;47.952;21.714;2023-02-19T00:20:24;100091.75;;;8.26;96.15
43071;BME280;36278;47.952;21.714;2023-02-19T00:22:50;100093.13;;;8.31;96.02
43071;BME280;36278;47.952;21.714;2023-02-19T00:25:16;100095.47;;;8.23;96.36
43071;BME280;36278;47.952;21.714;2023-02-19T00:27:41;100094.19;;;8.16;96.56
43071;BME280;36278;47.952;21.714;2023-02-19T00:30:07;100094.50;;;8.11;97.44
43071;BME280;36278;47.952;21.714;2023-02-19T00:32:33;100096.41;;;8.09;97.80
43071;BME280;36278;47.952;21.714;2023-02-19T00:34:58;100101.69;;;8.09;97.19
43071;BME280;36278;47.952;21.714;2023-02-19T00:37:24;100107.25;;;8.05;97.19
43071;BME280;36278;47.952;21.714;2023-02-19T00:39:49;100109.50;;;7.98;97.05
43071;BME280;36278;47.952;21.714;2023-02-19T00:42:15;100109.41;;;8.00;97.58
43071;BME280;36278;47.952;21.714;2023-02-19T00:44:40;100111.28;;;7.98;97.15
43071;BME280;36278;47.952;21.714;2023-02-19T00:47:05;100110.34;;;7.99;97.00
43071;BME280;36278;47.952;21.714;2023-02-19T00:49:31;100117.75;;;8.06;96.92
43071;BME280;36278;47.952;21.714;2023-02-19T00:51:56;100116.78;;;8.07;96.58
43071;BME280;36278;47.952;21.714;2023-02-19T00:54:22;100108.94;;;8.06;96.46
43071;BME280;36278;47.952;21.714;2023-02-19T00:56:47;100106.53;;;8.03;96.35
43071;BME280;36278;47.952;21.714;2023-02-19T00:59:14;100104.41;;;7.95;97.05
43071;BME280;36278;47.952;21.714;2023-02-19T01:01:40;100108.97;;;7.93;96.74
43071;BME280;36278;47.952;21.714;2023-02-19T01:04:05;100098.81;;;7.87;97.34
43071;BME280;36278;47.952;21.714;2023-02-19T01:06:31;100102.63;;;7.83;97.26
43071;BME280;36278;47.952;21.714;2023-02-19T01:08:57;100099.66;;;7.75;97.98
43071;BME280;36278;47.952;21.714;2023-02-19T01:11:23;100105.47;;;7.80;97.71
43071;BME280;36278;47.952;21.714;2023-02-19T01:13:49;100104.53;;;7.94;97.33
43071;BME280;36278;47.952;21.714;2023-02-19T01:16:20;100105.38;;;7.94;96.44
43071;BME280;36278;47.952;21.714;2023-02-19T01:18:46;100110.25;;;8.00;96.17
43071;BME280;36278;47.952;21.714;2023-02-19T01:21:21;100107.72;;;7.99;95.94
43071;BME280;36278;47.952;21.714;2023-02-19T01:23:48;100105.16;;;7.97;95.48
43071;BME280;36278;47.952;21.714;2023-02-19T01:26:19;100103.25;;;7.86;96.09
43071;BME280;36278;47.952;21.714;2023-02-19T01:28:45;100105.88;;;7.86;96.52
43071;BME280;36278;47.952;21.714;2023-02-19T01:31:15;100104.72;;;7.78;96.37
43071;BME280;36278;47.952;21.714;2023-02-19T01:33:49;100095.25;;;7.75;96.34
43071;BME280;36278;47.952;21.714;2023-02-19T01:36:15;100097.66;;;7.66;96.79
43071;BME280;36278;47.952;21.714;2023-02-19T01:38:41;100113.75;;;7.61;96.96
43071;BME280;36278;47.952;21.714;2023-02-19T01:41:09;100116.91;;;7.53;97.46
43071;BME280;36278;47.952;21.714;2023-02-19T01:44:04;100119.66;;;7.52;97.18
43071;BME280;36278;47.952;21.714;2023-02-19T01:46:40;100121.72;;;7.47;97.06
43071;BME280;36278;47.952;21.714;2023-02-19T01:49:09;100128.28;;;7.41;97.25
43071;BME280;36278;47.952;21.714;2023-02-19T01:51:41;100128.47;;;7.38;97.76
43071;BME280;36278;47.952;21.714;2023-02-19T01:54:10;100130.81;;;7.43;97.06
43071;BME280;36278;47.952;21.714;2023-02-19T01:56:39;100136.59;;;7.48;96.39
43071;BME280;36278;47.952;21.714;2023-02-19T01:59:07;100106.31;;;7.41;95.87
43071;BME280;36278;47.952;21.714;2023-02-19T02:01:35;100125.03;;;7.50;95.63
43071;BME280;36278;47.952;21.714;2023-02-19T02:04:02;100123.53;;;7.46;95.78
43071;BME280;36278;47.952;21.714;2023-02-19T02:06:33;100125.53;;;7.43;95.35
43071;BME280;36278;47.952;21.714;2023-02-19T02:09:01;100128.47;;;7.38;95.82
43071;BME280;36278;47.952;21.714;2023-02-19T02:11:48;100131.81;;;7.40;95.96
43071;BME280;36278;47.952;21.714;2023-02-19T02:14:16;100114.84;;;7.31;96.07
43071;BME280;36278;47.952;21.714;2023-02-19T02:17:46;100121.28;;;7.40;95.80
43071;BME280;36278;47.952;21.714;2023-02-19T02:27:55;100106.59;;;7.63;93.66
43071;BME280;36278;47.952;21.714;2023-02-19T02:30:40;100113.59;;;7.77;93.11
43071;BME280;36278;47.952;21.714;2023-02-19T02:36:07;100113.41;;;7.93;91.93
43071;BME280;36278;47.952;21.714;2023-02-19T02:38:36;100101.59;;;7.98;91.05
43071;BME280;36278;47.952;21.714;2023-02-19T02:41:03;100108.09;;;8.05;90.87
43071;BME280;36278;47.952;21.714;2023-02-19T02:43:29;100114.47;;;8.15;89.91
43071;BME280;36278;47.952;21.714;2023-02-19T02:45:55;100117.94;;;8.16;89.77
43071;BME280;36278;47.952;21.714;2023-02-19T02:51:22;100143.03;;;8.22;89.27
43071;BME280;36278;47.952;21.714;2023-02-19T02:56:39;100145.19;;;8.17;89.41
43071;BME280;36278;47.952;21.714;2023-02-19T02:59:08;100148.66;;;8.17;89.31
43071;BME280;36278;47.952;21.714;2023-02-19T03:01:44;100152.25;;;8.16;89.35
43071;BME280;36278;47.952;21.714;2023-02-19T03:07:48;100150.75;;;8.12;89.76
43071;BME280;36278;47.952;21.714;2023-02-19T03:10:19;100145.38;;;8.01;90.39
43071;BME280;36278;47.952;21.714;2023-02-19T03:12:49;100157.69;;;7.87;91.08
43071;BME280;36278;47.952;21.714;2023-02-19T03:15:40;100164.34;;;7.93;90.66
43071;BME280;36278;47.952;21.714;2023-02-19T03:18:29;100177.09;;;7.86;91.36
43071;BME280;36278;47.952;21.714;2023-02-19T03:21:16;100171.94;;;7.85;91.53
43071;BME280;36278;47.952;21.714;2023-02-19T03:23:44;100177.09;;;7.74;92.11
43071;BME280;36278;47.952;21.714;2023-02-19T03:26:32;100166.81;;;7.69;92.14
43071;BME280;36278;47.952;21.714;2023-02-19T03:28:57;100185.38;;;7.68;92.94
43071;BME280;36278;47.952;21.714;2023-02-19T03:31:45;100172.84;;;7.71;92.51
43071;BME280;36278;47.952;21.714;2023-02-19T03:34:16;100181.19;;;7.78;92.74
43071;BME280;36278;47.952;21.714;2023-02-19T03:36:51;100183.31;;;7.85;92.30
43071;BME280;36278;47.952;21.714;2023-02-19T03:39:20;100183.53;;;7.95;91.91
43071;BME280;36278;47.952;21.714;2023-02-19T04:00:14;100167.38;;;7.87;91.61
43071;BME280;36278;47.952;21.714;2023-02-19T04:02:57;100169.06;;;7.88;91.06
43071;BME280;36278;47.952;21.714;2023-02-19T04:05:31;100156.63;;;7.77;91.22
43071;BME280;36278;47.952;21.714;2023-02-19T04:08:01;100154.50;;;7.70;91.86
43071;BME280;36278;47.952;21.714;2023-02-19T04:10:29;100152.25;;;7.64;92.29
43071;BME280;36278;47.952;21.714;2023-02-19T04:13:00;100140.47;;;7.69;91.95
43071;BME280;36278;47.952;21.714;2023-02-19T04:15:30;100131.94;;;7.66;91.94
43071;BME280;36278;47.952;21.714;2023-02-19T04:18:01;100140.88;;;7.63;91.80
43071;BME280;36278;47.952;21.714;2023-02-19T04:20:29;100141.91;;;7.61;91.82
43071;BME280;36278;47.952;21.714;2023-02-19T04:22:56;100135.47;;;7.52;91.68
43071;BME280;36278;47.952;21.714;2023-02-19T04:25:22;100145.44;;;7.47;92.65
43071;BME280;36278;47.952;21.714;2023-02-19T04:27:50;100148.47;;;7.41;92.82
43071;BME280;36278;47.952;21.714;2023-02-19T04:30:17;100149.28;;;7.28;93.32
43071;BME280;36278;47.952;21.714;2023-02-19T04:32:43;100152.44;;;7.21;93.73
43071;BME280;36278;47.952;21.714;2023-02-19T04:35:08;100140.69;;;7.12;94.26
43071;BME280;36278;47.952;21.714;2023-02-19T04:37:34;100140.13;;;7.07;94.89
43071;BME280;36278;47.952;21.714;2023-02-19T04:39:59;100141.06;;;7.06;94.92
43071;BME280;36278;47.952;21.714;2023-02-19T04:42:25;100140.13;;;7.07;94.38
43071;BME280;36278;47.952;21.714;2023-02-19T04:44:50;100140.63;;;6.99;94.65
43071;BME280;36278;47.952;21.714;2023-02-19T04:47:15;100141.09;;;6.92;95.44
43071;BME280;36278;47.952;21.714;2023-02-19T04:49:42;100150.03;;;6.89;95.60
43071;BME280;36278;47.952;21.714;2023-02-19T04:52:08;100152.88;;;6.86;95.89
43071;BME280;36278;47.952;21.714;2023-02-19T04:54:33;100154.84;;;6.83;96.44
43071;BME280;36278;47.952;21.714;2023-02-19T04:56:59;100153.47;;;6.77;96.49
43071;BME280;36278;47.952;21.714;2023-02-19T04:59:24;100159.22;;;6.69;97.16
43071;BME280;36278;47.952;21.714;2023-02-19T05:01:50;100157.88;;;6.62;97.92
43071;BME280;36278;47.952;21.714;2023-02-19T05:04:15;100143.53;;;6.54;98.81
43071;BME280;36278;47.952;21.714;2023-02-19T05:06:40;100143.16;;;6.45;98.64
43071;BME280;36278;47.952;21.714;2023-02-19T05:09:06;100142.78;;;6.52;98.90
43071;BME280;36278;47.952;21.714;2023-02-19T05:11:32;100140.41;;;6.47;98.89
43071;BME280;36278;47.952;21.714;2023-02-19T05:13:57;100137.03;;;6.45;98.95
43071;BME280;36278;47.952;21.714;2023-02-19T05:16:22;100135.63;;;6.39;99.03
43071;BME280;36278;47.952;21.714;2023-02-19T05:18:48;100133.00;;;6.39;99.04
43071;BME280;36278;47.952;21.714;2023-02-19T05:21:14;100137.31;;;6.40;99.29
43071;BME280;36278;47.952;21.714;2023-02-19T05:23:40;100142.75;;;6.37;99.79
43071;BME280;36278;47.952;21.714;2023-02-19T05:26:11;100144.66;;;6.35;100.00
43071;BME280;36278;47.952;21.714;2023-02-19T05:28:37;100147.56;;;6.31;99.90
43071;BME280;36278;47.952;21.714;2023-02-19T05:31:05;100161.53;;;6.31;100.00
43071;BME280;36278;47.952;21.714;2023-02-19T05:33:31;100162.50;;;6.30;100.00
43071;BME280;36278;47.952;21.714;2023-02-19T05:35:57;100156.47;;;6.28;100.00
43071;BME280;36278;47.952;21.714;2023-02-19T05:38:22;100146.91;;;6.27;100.00
43071;BME280;36278;47.952;21.714;2023-02-19T05:40:49;100149.91;;;6.35;100.00
43071;BME280;36278;47.952;21.714;2023-02-19T05:43:15;100152.34;;;6.38;100.00
43071;BME280;36278;47.952;21.714;2023-02-19T05:45:41;100147.19;;;6.37;100.00
43071;BME280;36278;47.952;21.714;2023-02-19T05:48:06;100154.97;;;6.38;100.00
43071;BME280;36278;47.952;21.714;2023-02-19T05:50:33;100157.13;;;6.32;100.00
43071;BME280;36278;47.952;21.714;2023-02-19T05:53:02;100149.13;;;6.33;100.00
43071;BME280;36278;47.952;21.714;2023-02-19T05:55:29;100148.50;;;6.30;100.00
43071;BME280;36278;47.952;21.714;2023-02-19T05:57:57;100137.28;;;6.26;100.00
43071;BME280;36278;47.952;21.714;2023-02-19T06:00:23;100140.13;;;6.23;100.00
43071;BME280;36278;47.952;21.714;2023-02-19T06:02:51;100144.19;;;6.29;100.00
43071;BME280;36278;47.952;21.714;2023-02-19T06:05:16;100144.56;;;6.37;100.00
43071;BME280;36278;47.952;21.714;2023-02-19T06:07:42;100143.78;;;6.49;100.00
43071;BME280;36278;47.952;21.714;2023-02-19T06:10:09;100143.78;;;6.63;98.98
43071;BME280;36278;47.952;21.714;2023-02-19T06:12:35;100142.25;;;6.73;97.40
43071;BME280;36278;47.952;21.714;2023-02-19T06:15:00;100134.25;;;6.75;97.17
43071;BME280;36278;47.952;21.714;2023-02-19T06:17:26;100131.56;;;6.77;97.05
43071;BME280;36278;47.952;21.714;2023-02-19T06:19:51;100128.72;;;6.80;97.18
43071;BME280;36278;47.952;21.714;2023-02-19T06:22:17;100126.84;;;6.82;96.94
43071;BME280;36278;47.952;21.714;2023-02-19T06:24:42;100133.72;;;6.84;96.31
43071;BME280;36278;47.952;21.714;2023-02-19T06:27:08;100126.34;;;6.89;96.35
43071;BME280;36278;47.952;21.714;2023-02-19T06:29:34;100140.06;;;6.94;95.80
43071;BME280;36278;47.952;21.714;2023-02-19T06:32:03;100142.50;;;6.97;95.29
43071;BME280;36278;47.952;21.714;2023-02-19T06:34:30;100145.53;;;6.91;95.50
43071;BME280;36278;47.952;21.714;2023-02-19T06:36:55;100130.97;;;6.86;95.88
43071;BME280;36278;47.952;21.714;2023-02-19T06:39:21;100122.97;;;6.87;96.58
43071;BME280;36278;47.952;21.714;2023-02-19T06:41:46;100120.63;;;6.83;96.17
43071;BME280;36278;47.952;21.714;2023-02-19T06:44:12;100113.13;;;6.77;96.54
43071;BME280;36278;47.952;21.714;2023-02-19T06:46:37;100126.94;;;6.80;96.77
43071;BME280;36278;47.952;21.714;2023-02-19T06:49:04;100128.44;;;6.84;97.05
43071;BME280;36278;47.952;21.714;2023-02-19T06:51:29;100136.25;;;6.86;96.96
43071;BME280;36278;47.952;21.714;2023-02-19T06:54:00;100144.03;;;6.87;96.75
43071;BME280;36278;47.952;21.714;2023-02-19T06:56:29;100140.34;;;6.90;97.08
43071;BME280;36278;47.952;21.714;2023-02-19T06:58:57;100125.03;;;6.96;96.67
43071;BME280;36278;47.952;21.714;2023-02-19T07:01:24;100131.03;;;6.98;96.31
43071;BME280;36278;47.952;21.714;2023-02-19T07:03:49;100134.13;;;7.05;96.14
43071;BME280;36278;47.952;21.714;2023-02-19T07:06:16;100121.69;;;7.07;96.24
43071;BME280;36278;47.952;21.714;2023-02-19T07:08:42;100125.72;;;7.13;96.06
43071;BME280;36278;47.952;21.714;2023-02-19T07:11:07;100130.59;;;7.19;95.67
43071;BME280;36278;47.952;21.714;2023-02-19T07:13:33;100124.06;;;7.24;95.48
43071;BME280;36278;47.952;21.714;2023-02-19T07:16:07;100117.13;;;7.23;95.34
43071;BME280;36278;47.952;21.714;2023-02-19T07:18:33;100110.84;;;7.26;95.09
43071;BME280;36278;47.952;21.714;2023-02-19T07:21:03;100098.41;;;7.28;95.24
43071;BME280;36278;47.952;21.714;2023-02-19T07:23:29;100085.66;;;7.35;94.75
43071;BME280;36278;47.952;21.714;2023-02-19T07:25:55;100089.88;;;7.37;94.71
43071;BME280;36278;47.952;21.714;2023-02-19T07:28:21;100088.63;;;7.43;94.60
43071;BME280;36278;47.952;21.714;2023-02-19T07:30:46;100086.94;;;7.42;94.01
43071;BME280;36278;47.952;21.714;2023-02-19T07:33:12;100105.53;;;7.53;94.41
43071;BME280;36278;47.952;21.714;2023-02-19T07:35:37;100108.19;;;7.66;93.59
43071;BME280;36278;47.952;21.714;2023-02-19T07:38:08;100096.69;;;7.67;92.39
43071;BME280;36278;47.952;21.714;2023-02-19T07:40:34;100074.25;;;7.74;92.59
43071;BME280;36278;47.952;21.714;2023-02-19T07:43:01;100086.16;;;7.79;92.67
43071;BME280;36278;47.952;21.714;2023-02-19T07:45:26;100087.00;;;7.67;93.68
43071;BME280;36278;47.952;21.714;2023-02-19T07:47:51;100084.69;;;7.75;92.73
43071;BME280;36278;47.952;21.714;2023-02-19T07:50:17;100096.28;;;7.85;93.03
43071;BME280;36278;47.952;21.714;2023-02-19T07:52:42;100093.03;;;7.95;92.24
43071;BME280;36278;47.952;21.714;2023-02-19T07:55:08;100091.88;;;7.99;91.99
43071;BME280;36278;47.952;21.714;2023-02-19T07:57:33;100090.50;;;7.93;92.60
43071;BME280;36278;47.952;21.714;2023-02-19T07:59:59;100080.38;;;8.00;92.58
43071;BME280;36278;47.952;21.714;2023-02-19T08:02:24;100090.19;;;8.10;92.06
43071;BME280;36278;47.952;21.714;2023-02-19T08:05:08;100103.88;;;8.28;91.62
43071;BME280;36278;47.952;21.714;2023-02-19T08:07:35;100094.72;;;8.34;91.29
43071;BME280;36278;47.952;21.714;2023-02-19T08:10:02;100093.47;;;8.39;91.37
43071;BME280;36278;47.952;21.714;2023-02-19T08:12:59;100093.78;;;8.48;91.40
43071;BME280;36278;47.952;21.714;2023-02-19T08:16:09;100098.84;;;8.51;91.06
43071;BME280;36278;47.952;21.714;2023-02-19T08:18:36;100098.72;;;8.52;91.67
43071;BME280;36278;47.952;21.714;2023-02-19T08:21:01;100093.44;;;8.52;92.17
43071;BME280;36278;47.952;21.714;2023-02-19T08:23:27;100087.63;;;8.60;91.83
43071;BME280;36278;47.952;21.714;2023-02-19T08:25:56;100089.94;;;8.64;91.97
43071;BME280;36278;47.952;21.714;2023-02-19T08:28:22;100082.41;;;8.71;92.23
43071;BME280;36278;47.952;21.714;2023-02-19T08:30:47;100080.41;;;8.75;92.17
43071;BME280;36278;47.952;21.714;2023-02-19T08:33:16;100077.53;;;8.78;91.99
43071;BME280;36278;47.952;21.714;2023-02-19T08:35:42;100070.13;;;8.83;90.77
43071;BME280;36278;47.952;21.714;2023-02-19T08:38:09;100078.94;;;8.94;90.36
43071;BME280;36278;47.952;21.714;2023-02-19T08:40:36;100079.47;;;8.99;90.07
43071;BME280;36278;47.952;21.714;2023-02-19T08:43:03;100081.66;;;8.82;90.90
43071;BME280;36278;47.952;21.714;2023-02-19T08:45:29;100078.63;;;8.99;90.70
43071;BME280;36278;47.952;21.714;2023-02-19T08:47:55;100078.13;;;9.18;89.69
43071;BME280;36278;47.952;21.714;2023-02-19T08:50:20;100083.13;;;9.34;88.91
43071;BME280;36278;47.952;21.714;2023-02-19T08:52:46;100095.03;;;9.39;89.13
43071;BME280;36278;47.952;21.714;2023-02-19T08:55:12;100076.28;;;9.42;88.34
43071;BME280;36278;47.952;21.714;2023-02-19T08:57:38;100091.47;;;9.51;88.95
43071;BME280;36278;47.952;21.714;2023-02-19T09:00:05;100093.41;;;9.61;88.60
43071;BME280;36278;47.952;21.714;2023-02-19T09:02:31;100093.78;;;9.56;88.74
43071;BME280;36278;47.952;21.714;2023-02-19T09:04:56;100096.50;;;9.43;89.26
43071;BME280;36278;47.952;21.714;2023-02-19T09:07:22;100086.94;;;9.53;89.17
43071;BME280;36278;47.952;21.714;2023-02-19T09:09:48;100092.84;;;9.68;88.27
43071;BME280;36278;47.952;21.714;2023-02-19T09:12:13;100102.00;;;9.75;88.63
43071;BME280;36278;47.952;21.714;2023-02-19T09:14:40;100088.19;;;9.72;88.97
43071;BME280;36278;47.952;21.714;2023-02-19T09:17:06;100091.31;;;9.77;89.38
43071;BME280;36278;47.952;21.714;2023-02-19T09:19:33;100097.34;;;9.90;88.15
43071;BME280;36278;47.952;21.714;2023-02-19T09:21:58;100090.38;;;9.78;89.27
43071;BME280;36278;47.952;21.714;2023-02-19T09:24:24;100089.44;;;10.01;87.56
43071;BME280;36278;47.952;21.714;2023-02-19T09:26:51;100071.66;;;10.15;87.05
43071;BME280;36278;47.952;21.714;2023-02-19T09:29:17;100074.66;;;10.21;87.20
43071;BME280;36278;47.952;21.714;2023-02-19T09:31:42;100080.94;;;10.20;87.02
43071;BME280;36278;47.952;21.714;2023-02-19T09:34:08;100076.63;;;10.30;86.34
43071;BME280;36278;47.952;21.714;2023-02-19T09:36:33;100078.63;;;10.16;86.95
43071;BME280;36278;47.952;21.714;2023-02-19T09:38:59;100074.66;;;10.21;86.24
43071;BME280;36278;47.952;21.714;2023-02-19T09:41:31;100056.78;;;10.36;85.59
43071;BME280;36278;47.952;21.714;2023-02-19T09:43:59;100057.94;;;10.21;86.76
43071;BME280;36278;47.952;21.714;2023-02-19T09:46:43;100064.22;;;10.53;85.20
43071;BME280;36278;47.952;21.714;2023-02-19T09:51:40;100046.03;;;10.49;85.48
43071;BME280;36278;47.952;21.714;2023-02-19T09:54:16;100053.38;;;10.68;84.85
43071;BME280;36278;47.952;21.714;2023-02-19T09:56:44;100046.75;;;11.05;83.72
43071;BME280;36278;47.952;21.714;2023-02-19T09:59:18;100052.75;;;11.18;82.73
43071;BME280;36278;47.952;21.714;2023-02-19T10:01:47;100050.50;;;11.35;81.78
43071;BME280;36278;47.952;21.714;2023-02-19T10:04:13;100047.94;;;11.65;80.91
43071;BME280;36278;47.952;21.714;2023-02-19T10:06:39;100043.84;;;12.03;79.36
43071;BME280;36278;47.952;21.714;2023-02-19T10:09:20;100038.34;;;11.95;79.09
43071;BME280;36278;47.952;21.714;2023-02-19T10:11:47;100039.94;;;11.97;79.36
43071;BME280;36278;47.952;21.714;2023-02-19T10:14:20;100032.34;;;11.93;78.37
43071;BME280;36278;47.952;21.714;2023-02-19T10:16:48;100023.50;;;11.83;78.95
43071;BME280;36278;47.952;21.714;2023-02-19T10:19:14;100041.13;;;11.72;79.29
43071;BME280;36278;47.952;21.714;2023-02-19T10:21:41;100042.91;;;11.83;79.59
43071;BME280;36278;47.952;21.714;2023-02-19T10:24:07;100051.13;;;11.59;80.04
43071;BME280;36278;47.952;21.714;2023-02-19T10:26:39;100046.69;;;11.69;79.34
43071;BME280;36278;47.952;21.714;2023-02-19T10:29:04;100062.84;;;11.57;79.86
43071;BME280;36278;47.952;21.714;2023-02-19T10:31:31;100058.09;;;11.60;80.07
43071;BME280;36278;47.952;21.714;2023-02-19T10:33:59;100043.41;;;11.77;78.66
43071;BME280;36278;47.952;21.714;2023-02-19T10:36:40;100043.09;;;11.91;78.62
43071;BME280;36278;47.952;21.714;2023-02-19T10:41:48;100039.88;;;12.18;77.68
43071;BME280;36278;47.952;21.714;2023-02-19T10:44:22;100037.00;;;12.31;77.30
43071;BME280;36278;47.952;21.714;2023-02-19T10:46:51;100018.94;;;12.25;78.21
43071;BME280;36278;47.952;21.714;2023-02-19T10:49:26;100009.44;;;12.22;78.26
43071;BME280;36278;47.952;21.714;2023-02-19T10:51:55;100007.56;;;12.13;78.48
43071;BME280;36278;47.952;21.714;2023-02-19T10:54:28;99991.22;;;12.08;79.55
43071;BME280;36278;47.952;21.714;2023-02-19T10:57:21;99991.44;;;12.05;78.41
43071;BME280;36278;47.952;21.714;2023-02-19T10:59:57;99992.59;;;12.12;78.18
43071;BME280;36278;47.952;21.714;2023-02-19T11:02:24;100000.13;;;11.97;79.82
43071;BME280;36278;47.952;21.714;2023-02-19T11:07:47;100000.91;;;12.28;77.95
43071;BME280;36278;47.952;21.714;2023-02-19T11:10:37;100001.03;;;12.17;78.79
43071;BME280;36278;47.952;21.714;2023-02-19T11:13:05;99980.13;;;12.03;80.56
43071;BME280;36278;47.952;21.714;2023-02-19T11:15:33;99982.13;;;12.11;80.94
43071;BME280;36278;47.952;21.714;2023-02-19T11:20:54;99998.34;;;12.48;78.15
43071;BME280;36278;47.952;21.714;2023-02-19T11:25:58;99996.50;;;12.39;81.72
43071;BME280;36278;47.952;21.714;2023-02-19T11:28:32;99996.19;;;12.32;81.77
43071;BME280;36278;47.952;21.714;2023-02-19T11:31:32;99991.84;;;11.91;82.23
43071;BME280;36278;47.952;21.714;2023-02-19T11:37:08;99975.72;;;11.83;83.15
43071;BME280;36278;47.952;21.714;2023-02-19T11:39:34;99966.69;;;11.95;83.03
43071;BME280;36278;47.952;21.714;2023-02-19T11:42:52;99965.47;;;11.99;83.47
43071;BME280;36278;47.952;21.714;2023-02-19T11:53:46;99955.34;;;11.83;85.08
43071;BME280;36278;47.952;21.714;2023-02-19T11:56:20;99942.41;;;11.78;85.99
43071;BME280;36278;47.952;21.714;2023-02-19T12:10:02;99937.06;;;11.69;85.25
43071;BME280;36278;47.952;21.714;2023-02-19T12:18:26;99946.53;;;11.83;84.07
43071;BME280;36278;47.952;21.714;2023-02-19T12:22:18;99931.47;;;11.93;84.18
43071;BME280;36278;47.952;21.714;2023-02-19T12:24:21;99907.22;;;12.07;84.44
43071;BME280;36278;47.952;21.714;2023-02-19T12:43:05;99868.09;;;13.15;79.56
43071;BME280;36278;47.952;21.714;2023-02-19T12:45:44;99890.50;;;13.03;79.92
43071;BME280;36278;47.952;21.714;2023-02-19T12:48:31;99856.59;;;13.25;80.91
43071;BME280;36278;47.952;21.714;2023-02-19T12:51:08;99863.06;;;13.22;80.19
43071;BME280;36278;47.952;21.714;2023-02-19T12:53:43;99841.19;;;13.18;80.16
43071;BME280;36278;47.952;21.714;2023-02-19T12:56:19;99856.47;;;13.26;79.67
43071;BME280;36278;47.952;21.714;2023-02-19T12:58:56;99838.63;;;13.73;77.33
43071;BME280;36278;47.952;21.714;2023-02-19T13:01:25;99835.91;;;14.11;75.37
43071;BME280;36278;47.952;21.714;2023-02-19T13:04:04;99819.59;;;14.31;73.35
43071;BME280;36278;47.952;21.714;2023-02-19T13:06:36;99830.09;;;13.97;74.53
43071;BME280;36278;47.952;21.714;2023-02-19T13:09:15;99824.88;;;13.51;76.87
43071;BME280;36278;47.952;21.714;2023-02-19T13:11:48;99813.41;;;13.78;76.69
43071;BME280;36278;47.952;21.714;2023-02-19T13:16:46;99816.59;;;13.81;75.47
43071;BME280;36278;47.952;21.714;2023-02-19T13:19:13;99818.00;;;13.21;77.26
43071;BME280;36278;47.952;21.714;2023-02-19T13:21:40;99806.97;;;12.86;80.14
43071;BME280;36278;47.952;21.714;2023-02-19T13:24:36;99806.78;;;13.82;76.25
43071;BME280;36278;47.952;21.714;2023-02-19T13:27:24;99811.41;;;13.80;76.05
43071;BME280;36278;47.952;21.714;2023-02-19T13:38:22;99819.75;;;12.54;80.86
43071;BME280;36278;47.952;21.714;2023-02-19T13:40:56;99804.75;;;12.91;79.55
43071;BME280;36278;47.952;21.714;2023-02-19T13:43:29;99804.84;;;13.00;78.31
43071;BME280;36278;47.952;21.714;2023-02-19T13:46:10;99831.31;;;13.75;74.72
43071;BME280;36278;47.952;21.714;2023-02-19T13:48:39;99806.63;;;13.28;76.99
43071;BME280;36278;47.952;21.714;2023-02-19T14:17:39;99809.13;;;12.54;78.87
43071;BME280;36278;47.952;21.714;2023-02-19T14:25:43;99793.63;;;13.15;76.81
43071;BME280;36278;47.952;21.714;2023-02-19T14:30:45;99792.94;;;13.51;75.81
43071;BME280;36278;47.952;21.714;2023-02-19T14:33:15;99786.88;;;13.58;75.55
43071;BME280;36278;47.952;21.714;2023-02-19T14:35:44;99794.19;;;14.01;74.15
43071;BME280;36278;47.952;21.714;2023-02-19T14:38:23;99788.41;;;14.24;73.21
43071;BME280;36278;47.952;21.714;2023-02-19T14:40:50;99784.03;;;15.02;70.70
43071;BME280;36278;47.952;21.714;2023-02-19T14:43:19;99782.44;;;15.86;67.03
43071;BME280;36278;47.952;21.714;2023-02-19T14:46:07;99788.53;;;16.86;63.00
43071;BME280;36278;47.952;21.714;2023-02-19T14:48:37;99779.94;;;17.15;61.61
43071;BME280;36278;47.952;21.714;2023-02-19T14:51:06;99800.84;;;17.27;61.67
43071;BME280;36278;47.952;21.714;2023-02-19T14:53:37;99800.72;;;16.31;63.73
43071;BME280;36278;47.952;21.714;2023-02-19T14:56:04;99806.88;;;16.07;65.30
43071;BME280;36278;47.952;21.714;2023-02-19T14:58:32;99818.94;;;17.09;62.26
43071;BME280;36278;47.952;21.714;2023-02-19T15:00:57;99815.66;;;18.25;58.54
43071;BME280;36278;47.952;21.714;2023-02-19T15:03:30;99812.78;;;19.69;53.54
43071;BME280;36278;47.952;21.714;2023-02-19T15:06:12;99814.81;;;20.17;52.14
43071;BME280;36278;47.952;21.714;2023-02-19T15:08:48;99815.34;;;20.28;50.97
43071;BME280;36278;47.952;21.714;2023-02-19T15:11:21;99817.00;;;19.71;52.04
43071;BME280;36278;47.952;21.714;2023-02-19T15:13:50;99814.97;;;18.45;53.54
43071;BME280;36278;47.952;21.714;2023-02-19T15:16:21;99818.75;;;17.27;56.46
43071;BME280;36278;47.952;21.714;2023-02-19T15:18:48;99826.56;;;17.36;55.49
43071;BME280;36278;47.952;21.714;2023-02-19T15:21:29;99863.13;;;16.06;59.99
43071;BME280;36278;47.952;21.714;2023-02-19T15:24:01;99887.56;;;14.81;65.92